createdAt,value
2017-06-05T00:00:38.890Z,1011.19
2017-06-05T00:01:49.172Z,1011.22
2017-06-05T00:02:59.443Z,1011.22
2017-06-05T00:04:09.717Z,1011.21
2017-06-05T00:05:19.987Z,1011.25
2017-06-05T00:06:29.631Z,1011.25
2017-06-05T00:07:39.898Z,1011.22
2017-06-05T00:08:49.860Z,1011.23
2017-06-05T00:09:59.494Z,1011.21
2017-06-05T00:11:09.131Z,1011.21
2017-06-05T00:12:19.085Z,1011.19
2017-06-05T00:13:29.361Z,1011.19
2017-06-05T00:14:39.633Z,1011.18
2017-06-05T00:15:49.617Z,1011.18
2017-06-05T00:16:59.570Z,1011.18
2017-06-05T00:18:09.521Z,1011.17
2017-06-05T00:19:19.781Z,1011.18
2017-06-05T00:20:30.057Z,1011.17
2017-06-05T00:21:40.005Z,1011.17
2017-06-05T00:22:49.647Z,1011.17
2017-06-05T00:23:59.928Z,1011.17
2017-06-05T00:25:10.203Z,1011.19
2017-06-05T00:26:20.152Z,1011.23
2017-06-05T00:27:30.432Z,1011.22
2017-06-05T00:28:40.699Z,1011.21
2017-06-05T00:29:50.967Z,1011.25
2017-06-05T00:31:01.236Z,1011.27
2017-06-05T00:32:11.184Z,1011.3
2017-06-05T00:33:21.141Z,1011.28
2017-06-05T00:34:31.403Z,1011.33
2017-06-05T00:35:41.071Z,1011.3
2017-06-05T00:36:50.717Z,1011.3
2017-06-05T00:38:01.014Z,1011.27
2017-06-05T00:39:10.965Z,1011.28
2017-06-05T00:40:20.922Z,1011.3
2017-06-05T00:41:31.188Z,1011.27
2017-06-05T00:42:40.831Z,1011.28
2017-06-05T00:43:50.476Z,1011.29
2017-06-05T00:45:00.124Z,1011.28
2017-06-05T00:46:10.081Z,1011.28
2017-06-05T00:47:20.349Z,1011.27
2017-06-05T00:48:30.308Z,1011.25
2017-06-05T00:49:40.581Z,1011.27
2017-06-05T00:50:50.565Z,1011.26
2017-06-05T00:52:00.518Z,1011.26
2017-06-05T00:53:10.471Z,1011.25
2017-06-05T00:54:20.431Z,1011.25
2017-06-05T00:55:30.381Z,1011.25
2017-06-05T00:56:40.331Z,1011.22
2017-06-05T00:57:50.295Z,1011.22
2017-06-05T00:59:00.574Z,1011.21
2017-06-05T01:00:10.530Z,1011.23
2017-06-05T01:01:20.796Z,1011.23
2017-06-05T01:02:31.069Z,1011.2
2017-06-05T01:03:41.016Z,1011.21
2017-06-05T01:04:51.293Z,1011.21
2017-06-05T01:06:01.569Z,1011.18
2017-06-05T01:07:11.841Z,1011.19
2017-06-05T01:08:22.106Z,1011.22
2017-06-05T01:09:32.375Z,1011.23
2017-06-05T01:10:42.642Z,1011.22
2017-06-05T01:11:52.598Z,1011.2
2017-06-05T01:13:02.548Z,1011.2
2017-06-05T01:14:12.818Z,1011.2
2017-06-05T01:15:22.460Z,1011.24
2017-06-05T01:16:32.725Z,1011.28
2017-06-05T01:17:42.371Z,1011.27
2017-06-05T01:18:52.644Z,1011.27
2017-06-05T01:20:02.909Z,1011.27
2017-06-05T01:21:12.554Z,1011.32
2017-06-05T01:22:22.191Z,1011.3
2017-06-05T01:23:32.459Z,1011.32
2017-06-05T01:24:42.723Z,1011.31
2017-06-05T01:25:52.991Z,1011.36
2017-06-05T01:27:03.259Z,1011.41
2017-06-05T01:28:13.219Z,1011.48
2017-06-05T01:29:23.485Z,1011.49
2017-06-05T01:30:33.439Z,1011.51
2017-06-05T01:31:43.385Z,1011.51
2017-06-05T01:32:53.338Z,1011.53
2017-06-05T01:34:03.289Z,1011.54
2017-06-05T01:35:13.548Z,1011.57
2017-06-05T01:36:23.190Z,1011.59
2017-06-05T01:37:32.516Z,1011.59
2017-06-05T01:38:42.795Z,1011.6
2017-06-05T01:39:52.435Z,1011.57
2017-06-05T01:41:02.710Z,1011.6
2017-06-05T01:42:12.350Z,1011.6
2017-06-05T01:43:22.621Z,1011.64
2017-06-05T01:44:32.579Z,1011.59
2017-06-05T01:45:42.578Z,1011.64
2017-06-05T01:46:52.848Z,1011.64
2017-06-05T01:48:02.494Z,1011.65
2017-06-05T01:49:12.473Z,1011.66
2017-06-05T01:50:22.460Z,1011.66
2017-06-05T01:51:32.436Z,1011.62
2017-06-05T01:52:42.389Z,1011.67
2017-06-05T01:53:52.341Z,1011.68
2017-06-05T01:55:02.625Z,1011.63
2017-06-05T01:56:12.890Z,1011.69
2017-06-05T01:57:23.162Z,1011.71
2017-06-05T01:58:32.801Z,1011.76
2017-06-05T01:59:42.803Z,1011.72
2017-06-05T02:00:53.078Z,1011.79
2017-06-05T02:02:03.034Z,1011.81
2017-06-05T02:03:12.999Z,1011.8
2017-06-05T02:04:22.957Z,1011.8
2017-06-05T02:05:33.233Z,1011.77
2017-06-05T02:06:43.186Z,1011.76
2017-06-05T02:07:53.142Z,1011.81
2017-06-05T02:09:03.100Z,1011.79
2017-06-05T02:10:13.366Z,1011.8
2017-06-05T02:11:23.319Z,1011.79
2017-06-05T02:12:33.580Z,1011.86
2017-06-05T02:13:43.539Z,1011.85
2017-06-05T02:14:53.802Z,1011.83
2017-06-05T02:16:04.082Z,1011.86
2017-06-05T02:17:13.765Z,1011.87
2017-06-05T02:18:24.039Z,1011.87
2017-06-05T02:19:33.680Z,1011.86
2017-06-05T02:20:43.954Z,1011.86
2017-06-05T02:21:53.597Z,1011.85
2017-06-05T02:23:03.867Z,1011.87
2017-06-05T02:24:13.834Z,1011.82
2017-06-05T02:25:24.106Z,1011.85
2017-06-05T02:26:33.749Z,1011.84
2017-06-05T02:27:44.022Z,1011.86
2017-06-05T02:28:53.664Z,1011.84
2017-06-05T02:30:03.622Z,1011.88
2017-06-05T02:31:13.581Z,1011.91
2017-06-05T02:32:23.541Z,1011.94
2017-06-05T02:33:33.492Z,1011.9
2017-06-05T02:34:43.445Z,1011.89
2017-06-05T02:35:53.707Z,1011.91
2017-06-05T02:37:03.347Z,1011.9
2017-06-05T02:38:13.621Z,1011.97
2017-06-05T02:39:23.258Z,1011.97
2017-06-05T02:40:33.524Z,1011.98
2017-06-05T02:41:43.797Z,1012.01
2017-06-05T02:42:53.752Z,1012.04
2017-06-05T02:44:04.026Z,1012.04
2017-06-05T02:45:13.677Z,1012.04
2017-06-05T02:46:23.955Z,1012
2017-06-05T02:47:34.258Z,1012.03
2017-06-05T02:48:44.533Z,1012.05
2017-06-05T02:49:54.183Z,1012.04
2017-06-05T02:51:03.829Z,1012.09
2017-06-05T02:52:13.802Z,1012.09
2017-06-05T02:53:23.759Z,1012.09
2017-06-05T02:54:33.402Z,1012.07
2017-06-05T02:55:43.669Z,1012.05
2017-06-05T02:56:53.623Z,1012.04
2017-06-05T02:58:03.894Z,1012.03
2017-06-05T02:59:14.167Z,1012.05
2017-06-05T03:00:24.453Z,1012.02
2017-06-05T03:01:34.720Z,1012.02
2017-06-05T03:02:44.668Z,1012.06
2017-06-05T03:03:54.933Z,1012.05
2017-06-05T03:05:05.206Z,1012.04
2017-06-05T03:06:14.533Z,1012.05
2017-06-05T03:07:24.808Z,1012.1
2017-06-05T03:08:35.088Z,1012.07
2017-06-05T03:09:45.366Z,1012.1
2017-06-05T03:10:55.643Z,1012.08
2017-06-05T03:12:05.909Z,1012.05
2017-06-05T03:13:15.862Z,1012.04
2017-06-05T03:14:25.851Z,1012.05
2017-06-05T03:15:36.120Z,1012.05
2017-06-05T03:16:45.753Z,1012.04
2017-06-05T03:17:56.019Z,1012.02
2017-06-05T03:19:05.976Z,1012.02
2017-06-05T03:20:15.930Z,1012
2017-06-05T03:21:25.248Z,1012.03
2017-06-05T03:22:35.520Z,1012.06
2017-06-05T03:23:45.480Z,1012.04
2017-06-05T03:24:55.115Z,1012.06
2017-06-05T03:26:05.385Z,1012.05
2017-06-05T03:27:15.342Z,1012.06
2017-06-05T03:28:25.631Z,1012.05
2017-06-05T03:29:35.592Z,1012.03
2017-06-05T03:30:45.558Z,1012.04
2017-06-05T03:31:55.520Z,1012.04
2017-06-05T03:33:05.157Z,1012.03
2017-06-05T03:34:15.462Z,1012.02
2017-06-05T03:35:25.735Z,1012.03
2017-06-05T03:36:35.683Z,1011.98
2017-06-05T03:37:45.951Z,1011.98
2017-06-05T03:38:55.899Z,1012
2017-06-05T03:40:05.876Z,1012.03
2017-06-05T03:41:16.142Z,1012.04
2017-06-05T03:42:26.413Z,1012.06
2017-06-05T03:43:36.370Z,1012.04
2017-06-05T03:44:46.006Z,1012.05
2017-06-05T03:45:56.276Z,1012.07
2017-06-05T03:47:06.228Z,1012.08
2017-06-05T03:48:16.183Z,1012.15
2017-06-05T03:49:25.832Z,1012.15
2017-06-05T03:50:36.107Z,1012.13
2017-06-05T03:51:46.375Z,1012.2
2017-06-05T03:52:56.657Z,1012.21
2017-06-05T03:54:06.610Z,1012.19
2017-06-05T03:55:16.560Z,1012.22
2017-06-05T03:56:26.832Z,1012.15
2017-06-05T03:57:36.787Z,1012.16
2017-06-05T03:58:46.429Z,1012.19
2017-06-05T03:59:56.703Z,1012.2
2017-06-05T04:01:06.975Z,1012.23
2017-06-05T04:02:16.932Z,1012.25
2017-06-05T04:03:26.890Z,1012.2
2017-06-05T04:04:36.846Z,1012.22
2017-06-05T04:05:46.801Z,1012.18
2017-06-05T04:06:57.063Z,1012.17
2017-06-05T04:08:07.006Z,1012.18
2017-06-05T04:09:17.280Z,1012.16
2017-06-05T04:10:27.556Z,1012.15
2017-06-05T04:11:37.508Z,1012.18
2017-06-05T04:12:47.466Z,1012.21
2017-06-05T04:13:57.426Z,1012.23
2017-06-05T04:15:07.380Z,1012.2
2017-06-05T04:16:17.338Z,1012.21
2017-06-05T04:17:27.298Z,1012.21
2017-06-05T04:18:36.937Z,1012.21
2017-06-05T04:19:46.916Z,1012.18
2017-06-05T04:20:56.557Z,1012.18
2017-06-05T04:22:06.829Z,1012.19
2017-06-05T04:23:17.101Z,1012.19
2017-06-05T04:24:27.369Z,1012.22
2017-06-05T04:25:37.643Z,1012.19
2017-06-05T04:26:47.290Z,1012.15
2017-06-05T04:27:56.930Z,1012.18
2017-06-05T04:29:07.204Z,1012.19
2017-06-05T04:30:16.524Z,1012.17
2017-06-05T04:31:26.473Z,1012.17
2017-06-05T04:32:36.427Z,1012.15
2017-06-05T04:33:46.377Z,1012.2
2017-06-05T04:34:56.646Z,1012.16
2017-06-05T04:36:06.615Z,1012.21
2017-06-05T04:37:15.936Z,1012.2
2017-06-05T04:38:26.206Z,1012.19
2017-06-05T04:39:36.473Z,1012.18
2017-06-05T04:40:46.744Z,1012.2
2017-06-05T04:41:56.694Z,1012.24
2017-06-05T04:43:06.007Z,1012.22
2017-06-05T04:44:15.960Z,1012.21
2017-06-05T04:45:25.911Z,1012.27
2017-06-05T04:46:35.863Z,1012.28
2017-06-05T04:47:46.124Z,1012.29
2017-06-05T04:48:56.396Z,1012.27
2017-06-05T04:50:06.037Z,1012.28
2017-06-05T04:51:15.983Z,1012.26
2017-06-05T04:52:25.936Z,1012.28
2017-06-05T04:53:35.580Z,1012.28
2017-06-05T04:54:45.216Z,1012.3
2017-06-05T04:55:55.171Z,1012.28
2017-06-05T04:57:05.439Z,1012.28
2017-06-05T04:58:15.717Z,1012.29
2017-06-05T04:59:25.978Z,1012.3
2017-06-05T05:00:36.244Z,1012.3
2017-06-05T05:01:46.197Z,1012.33
2017-06-05T05:02:55.514Z,1012.36
2017-06-05T05:04:05.777Z,1012.33
2017-06-05T05:05:15.421Z,1012.32
2017-06-05T05:06:25.685Z,1012.32
2017-06-05T05:07:35.946Z,1012.3
2017-06-05T05:08:45.580Z,1012.31
2017-06-05T05:09:55.853Z,1012.37
2017-06-05T05:11:05.177Z,1012.36
2017-06-05T05:12:15.162Z,1012.37
2017-06-05T05:13:25.107Z,1012.41
2017-06-05T05:14:34.748Z,1012.4
2017-06-05T05:15:45.017Z,1012.41
2017-06-05T05:16:54.657Z,1012.43
2017-06-05T05:18:04.609Z,1012.45
2017-06-05T05:19:14.884Z,1012.43
2017-06-05T05:20:24.529Z,1012.49
2017-06-05T05:21:34.480Z,1012.51
2017-06-05T05:22:44.753Z,1012.48
2017-06-05T05:23:54.712Z,1012.49
2017-06-05T05:25:04.668Z,1012.47
2017-06-05T05:26:14.622Z,1012.46
2017-06-05T05:27:24.255Z,1012.45
2017-06-05T05:28:34.241Z,1012.46
2017-06-05T05:29:44.196Z,1012.47
2017-06-05T05:30:53.843Z,1012.48
2017-06-05T05:32:04.109Z,1012.51
2017-06-05T05:33:13.435Z,1012.5
2017-06-05T05:34:23.704Z,1012.52
2017-06-05T05:35:33.352Z,1012.57
2017-06-05T05:36:43.625Z,1012.54
2017-06-05T05:37:53.586Z,1012.54
2017-06-05T05:39:03.853Z,1012.52
2017-06-05T05:40:13.502Z,1012.55
2017-06-05T05:41:23.464Z,1012.53
2017-06-05T05:42:33.412Z,1012.52
2017-06-05T05:43:43.365Z,1012.55
2017-06-05T05:44:53.639Z,1012.54
2017-06-05T05:46:03.271Z,1012.57
2017-06-05T05:47:12.911Z,1012.56
2017-06-05T05:48:22.863Z,1012.56
2017-06-05T05:49:32.534Z,1012.58
2017-06-05T05:50:42.487Z,1012.57
2017-06-05T05:51:52.126Z,1012.56
2017-06-05T05:53:02.077Z,1012.58
2017-06-05T05:54:12.344Z,1012.56
2017-06-05T05:55:22.618Z,1012.63
2017-06-05T05:56:32.574Z,1012.63
2017-06-05T05:57:42.842Z,1012.65
2017-06-05T05:58:53.114Z,1012.64
2017-06-05T06:00:02.759Z,1012.63
2017-06-05T06:01:12.400Z,1012.64
2017-06-05T06:02:22.673Z,1012.67
2017-06-05T06:03:32.949Z,1012.66
2017-06-05T06:04:42.267Z,1012.66
2017-06-05T06:05:52.220Z,1012.67
2017-06-05T06:07:02.174Z,1012.68
2017-06-05T06:08:11.507Z,1012.69
2017-06-05T06:09:21.457Z,1012.67
2017-06-05T06:10:31.420Z,1012.68
2017-06-05T06:11:41.060Z,1012.65
2017-06-05T06:12:51.328Z,1012.64
2017-06-05T06:14:01.280Z,1012.68
2017-06-05T06:15:11.230Z,1012.69
2017-06-05T06:16:20.871Z,1012.68
2017-06-05T06:17:31.138Z,1012.68
2017-06-05T06:18:40.779Z,1012.72
2017-06-05T06:19:51.081Z,1012.73
2017-06-05T06:21:00.723Z,1012.69
2017-06-05T06:22:10.053Z,1012.66
2017-06-05T06:23:20.329Z,1012.66
2017-06-05T06:24:30.604Z,1012.69
2017-06-05T06:25:40.560Z,1012.68
2017-06-05T06:26:50.830Z,1012.71
2017-06-05T06:28:01.116Z,1012.71
2017-06-05T06:29:10.753Z,1012.72
2017-06-05T06:30:20.703Z,1012.76
2017-06-05T06:31:30.969Z,1012.72
2017-06-05T06:32:40.941Z,1012.72
2017-06-05T06:33:49.981Z,1012.74
2017-06-05T06:34:59.938Z,1012.78
2017-06-05T06:36:09.573Z,1012.77
2017-06-05T06:37:19.522Z,1012.74
2017-06-05T06:38:29.473Z,1012.73
2017-06-05T06:39:39.111Z,1012.75
2017-06-05T06:40:49.380Z,1012.69
2017-06-05T06:41:59.342Z,1012.7
2017-06-05T06:43:09.297Z,1012.72
2017-06-05T06:44:19.566Z,1012.67
2017-06-05T06:45:28.886Z,1012.71
2017-06-05T06:46:38.843Z,1012.68
2017-06-05T06:47:49.111Z,1012.65
2017-06-05T06:48:59.067Z,1012.65
2017-06-05T06:50:08.700Z,1012.67
2017-06-05T06:51:18.335Z,1012.71
2017-06-05T06:52:27.989Z,1012.71
2017-06-05T06:53:38.260Z,1012.73
2017-06-05T06:54:47.592Z,1012.71
2017-06-05T06:55:57.552Z,1012.71
2017-06-05T06:57:07.507Z,1012.72
2017-06-05T06:58:17.775Z,1012.75
2017-06-05T06:59:27.731Z,1012.74
2017-06-05T07:00:37.685Z,1012.75
2017-06-05T07:01:47.953Z,1012.78
2017-06-05T07:02:57.600Z,1012.8
2017-06-05T07:04:07.553Z,1012.83
2017-06-05T07:05:17.827Z,1012.84
2017-06-05T07:06:28.092Z,1012.8
2017-06-05T07:07:37.414Z,1012.81
2017-06-05T07:08:47.367Z,1012.85
2017-06-05T07:09:57.326Z,1012.85
2017-06-05T07:11:07.594Z,1012.9
2017-06-05T07:12:17.855Z,1012.85
2017-06-05T07:13:27.836Z,1012.87
2017-06-05T07:14:37.793Z,1012.81
2017-06-05T07:15:47.782Z,1012.83
2017-06-05T07:16:58.047Z,1012.83
2017-06-05T07:18:08.315Z,1012.8
2017-06-05T07:19:18.270Z,1012.82
2017-06-05T07:20:28.229Z,1012.83
2017-06-05T07:21:38.180Z,1012.82
2017-06-05T07:22:48.448Z,1012.84
2017-06-05T07:23:58.091Z,1012.87
2017-06-05T07:25:08.046Z,1012.86
2017-06-05T07:26:18.344Z,1012.83
2017-06-05T07:27:27.675Z,1012.85
2017-06-05T07:28:37.937Z,1012.86
2017-06-05T07:29:48.203Z,1012.87
2017-06-05T07:30:58.483Z,1012.86
2017-06-05T07:32:08.115Z,1012.84
2017-06-05T07:33:18.387Z,1012.84
2017-06-05T07:34:28.029Z,1012.85
2017-06-05T07:35:38.304Z,1012.88
2017-06-05T07:36:47.673Z,1012.88
2017-06-05T07:37:57.627Z,1012.87
2017-06-05T07:39:07.898Z,1012.91
2017-06-05T07:40:17.849Z,1012.84
2017-06-05T07:41:27.490Z,1012.88
2017-06-05T07:42:37.444Z,1012.88
2017-06-05T07:43:47.709Z,1012.9
2017-06-05T07:44:57.349Z,1012.91
2017-06-05T07:46:07.621Z,1012.86
2017-06-05T07:47:17.886Z,1012.89
2017-06-05T07:48:27.839Z,1012.91
2017-06-05T07:49:37.790Z,1012.94
2017-06-05T07:50:47.748Z,1012.93
2017-06-05T07:51:58.015Z,1012.91
2017-06-05T07:53:07.967Z,1012.91
2017-06-05T07:54:17.605Z,1012.9
2017-06-05T07:55:27.559Z,1012.85
2017-06-05T07:56:37.860Z,1012.86
2017-06-05T07:57:48.128Z,1012.88
2017-06-05T07:58:58.146Z,1012.81
2017-06-05T08:00:08.415Z,1012.82
2017-06-05T08:01:18.375Z,1012.86
2017-06-05T08:02:28.645Z,1012.86
2017-06-05T08:03:38.909Z,1012.85
2017-06-05T08:04:48.860Z,1012.84
2017-06-05T08:05:58.819Z,1012.84
2017-06-05T08:07:08.451Z,1012.84
2017-06-05T08:08:18.406Z,1012.82
2017-06-05T08:09:28.041Z,1012.8
2017-06-05T08:10:37.994Z,1012.81
2017-06-05T08:11:47.946Z,1012.79
2017-06-05T08:12:57.899Z,1012.76
2017-06-05T08:14:08.160Z,1012.76
2017-06-05T08:15:18.439Z,1012.77
2017-06-05T08:16:28.708Z,1012.78
2017-06-05T08:17:38.659Z,1012.77
2017-06-05T08:18:48.601Z,1012.75
2017-06-05T08:19:58.861Z,1012.76
2017-06-05T08:21:08.823Z,1012.71
2017-06-05T08:22:18.455Z,1012.69
2017-06-05T08:23:28.720Z,1012.71
2017-06-05T08:24:38.353Z,1012.69
2017-06-05T08:25:48.617Z,1012.68
2017-06-05T08:26:58.888Z,1012.67
2017-06-05T08:28:08.841Z,1012.69
2017-06-05T08:29:18.495Z,1012.72
2017-06-05T08:30:28.453Z,1012.73
2017-06-05T08:31:38.086Z,1012.69
2017-06-05T08:32:47.730Z,1012.66
2017-06-05T08:33:57.684Z,1012.7
2017-06-05T08:35:07.954Z,1012.72
2017-06-05T08:36:17.906Z,1012.71
2017-06-05T08:37:27.860Z,1012.68
2017-06-05T08:38:38.137Z,1012.7
2017-06-05T08:39:48.085Z,1012.7
2017-06-05T08:40:58.029Z,1012.66
2017-06-05T08:42:07.990Z,1012.65
2017-06-05T08:43:17.626Z,1012.66
2017-06-05T08:44:27.598Z,1012.69
2017-06-05T08:45:37.557Z,1012.68
2017-06-05T08:46:47.516Z,1012.66
2017-06-05T08:47:57.780Z,1012.63
2017-06-05T08:49:07.732Z,1012.6
2017-06-05T08:50:17.998Z,1012.58
2017-06-05T08:51:27.948Z,1012.61
2017-06-05T08:52:37.904Z,1012.6
2017-06-05T08:53:47.537Z,1012.56
2017-06-05T08:54:57.484Z,1012.59
2017-06-05T08:56:07.794Z,1012.62
2017-06-05T08:57:17.749Z,1012.66
2017-06-05T08:58:27.390Z,1012.63
2017-06-05T08:59:37.024Z,1012.58
2017-06-05T09:00:46.979Z,1012.59
2017-06-05T09:01:57.250Z,1012.55
2017-06-05T09:03:07.213Z,1012.53
2017-06-05T09:04:17.483Z,1012.53
2017-06-05T09:05:27.120Z,1012.56
2017-06-05T09:06:37.085Z,1012.58
2017-06-05T09:07:47.040Z,1012.58
2017-06-05T09:08:57.305Z,1012.55
2017-06-05T09:10:07.573Z,1012.57
2017-06-05T09:11:17.211Z,1012.57
2017-06-05T09:12:27.476Z,1012.52
2017-06-05T09:13:37.119Z,1012.51
2017-06-05T09:14:46.755Z,1012.46
2017-06-05T09:15:57.013Z,1012.44
2017-06-05T09:17:07.286Z,1012.37
2017-06-05T09:18:17.274Z,1012.38
2017-06-05T09:19:27.542Z,1012.41
2017-06-05T09:20:37.179Z,1012.41
2017-06-05T09:21:47.441Z,1012.4
2017-06-05T09:22:56.768Z,1012.43
2017-06-05T09:24:07.029Z,1012.38
2017-06-05T09:25:17.295Z,1012.38
2017-06-05T09:26:27.572Z,1012.37
2017-06-05T09:27:37.834Z,1012.33
2017-06-05T09:28:47.474Z,1012.33
2017-06-05T09:29:57.750Z,1012.35
2017-06-05T09:31:07.701Z,1012.38
2017-06-05T09:32:17.650Z,1012.34
2017-06-05T09:33:27.603Z,1012.37
2017-06-05T09:34:37.869Z,1012.38
2017-06-05T09:35:47.820Z,1012.3
2017-06-05T09:36:57.466Z,1012.37
2017-06-05T09:38:07.725Z,1012.38
2017-06-05T09:39:17.042Z,1012.37
2017-06-05T09:40:26.988Z,1012.34
2017-06-05T09:41:36.626Z,1012.36
2017-06-05T09:42:46.897Z,1012.37
2017-06-05T09:43:56.850Z,1012.35
2017-06-05T09:45:06.796Z,1012.41
2017-06-05T09:46:16.749Z,1012.36
2017-06-05T09:47:26.405Z,1012.41
2017-06-05T09:48:36.664Z,1012.38
2017-06-05T09:49:46.618Z,1012.35
2017-06-05T09:50:56.257Z,1012.3
2017-06-05T09:52:06.205Z,1012.33
2017-06-05T09:53:16.158Z,1012.32
2017-06-05T09:54:26.104Z,1012.31
2017-06-05T09:55:36.370Z,1012.32
2017-06-05T09:56:46.631Z,1012.32
2017-06-05T09:57:56.900Z,1012.32
2017-06-05T09:59:06.963Z,1012.31
2017-06-05T10:00:18.094Z,1012.27
2017-06-05T10:01:29.178Z,1012.25
2017-06-05T10:02:40.257Z,1012.23
2017-06-05T10:03:51.345Z,1012.15
2017-06-05T10:05:02.066Z,1012.21
2017-06-05T10:06:12.841Z,1012.18
2017-06-05T10:07:23.935Z,1012.14
2017-06-05T10:08:34.638Z,1012.14
2017-06-05T10:09:45.714Z,1012.14
2017-06-05T10:10:56.814Z,1012.09
2017-06-05T10:12:07.936Z,1012.08
2017-06-05T10:13:18.697Z,1012.08
2017-06-05T10:14:29.469Z,1012.06
2017-06-05T10:15:39.877Z,1012.07
2017-06-05T10:16:50.706Z,1012.08
2017-06-05T10:18:01.241Z,1012.03
2017-06-05T10:19:12.433Z,1012.06
2017-06-05T10:20:23.625Z,1012.06
2017-06-05T10:21:34.096Z,1011.99
2017-06-05T10:22:44.549Z,1011.98
2017-06-05T10:23:55.783Z,1011.94
2017-06-05T10:25:06.472Z,1011.93
2017-06-05T10:26:17.410Z,1011.94
2017-06-05T10:27:28.434Z,1011.96
2017-06-05T10:28:38.851Z,1011.97
2017-06-05T10:29:48.806Z,1011.98
2017-06-05T10:30:59.739Z,1011.98
2017-06-05T10:32:09.956Z,1011.96
2017-06-05T10:33:20.887Z,1011.96
2017-06-05T10:34:31.161Z,1011.93
2017-06-05T10:35:42.332Z,1011.92
2017-06-05T10:36:53.086Z,1011.91
2017-06-05T10:38:04.201Z,1011.93
2017-06-05T10:39:15.343Z,1011.91
2017-06-05T10:40:26.538Z,1011.88
2017-06-05T10:41:37.841Z,1011.88
2017-06-05T10:42:48.674Z,1011.9
2017-06-05T10:43:59.521Z,1011.89
2017-06-05T10:45:11.321Z,1011.91
2017-06-05T10:46:21.784Z,1011.91
2017-06-05T10:47:32.567Z,1011.87
2017-06-05T10:48:43.664Z,1011.86
2017-06-05T10:49:54.400Z,1011.86
2017-06-05T10:51:05.206Z,1011.87
2017-06-05T10:52:15.621Z,1011.89
2017-06-05T10:53:26.828Z,1011.88
2017-06-05T10:54:37.240Z,1011.88
2017-06-05T10:55:48.447Z,1011.86
2017-06-05T10:56:59.648Z,1011.87
2017-06-05T10:58:10.126Z,1011.88
2017-06-05T10:59:20.605Z,1011.86
2017-06-05T11:00:31.252Z,1011.84
2017-06-05T11:01:41.740Z,1011.85
2017-06-05T11:02:51.638Z,1011.8
2017-06-05T11:04:02.193Z,1011.78
2017-06-05T11:05:12.717Z,1011.8
2017-06-05T11:06:23.271Z,1011.75
2017-06-05T11:07:33.496Z,1011.78
2017-06-05T11:08:44.070Z,1011.81
2017-06-05T11:09:54.407Z,1011.75
2017-06-05T11:11:04.674Z,1011.71
2017-06-05T11:12:14.628Z,1011.75
2017-06-05T11:13:24.575Z,1011.69
2017-06-05T11:14:34.870Z,1011.67
2017-06-05T11:15:44.818Z,1011.67
2017-06-05T11:16:55.084Z,1011.68
2017-06-05T11:18:04.720Z,1011.68
2017-06-05T11:19:14.981Z,1011.66
2017-06-05T11:20:24.632Z,1011.63
2017-06-05T11:21:34.900Z,1011.66
2017-06-05T11:22:44.859Z,1011.62
2017-06-05T11:23:55.128Z,1011.58
2017-06-05T11:25:05.115Z,1011.6
2017-06-05T11:26:14.746Z,1011.56
2017-06-05T11:27:24.073Z,1011.58
2017-06-05T11:28:34.025Z,1011.6
2017-06-05T11:29:44.291Z,1011.57
2017-06-05T11:30:54.243Z,1011.58
2017-06-05T11:32:04.195Z,1011.57
2017-06-05T11:33:14.147Z,1011.57
2017-06-05T11:34:24.413Z,1011.6
2017-06-05T11:35:34.685Z,1011.63
2017-06-05T11:36:44.634Z,1011.64
2017-06-05T11:37:54.270Z,1011.63
2017-06-05T11:39:04.216Z,1011.63
2017-06-05T11:40:14.168Z,1011.64
2017-06-05T11:41:24.119Z,1011.59
2017-06-05T11:42:34.386Z,1011.56
2017-06-05T11:43:44.654Z,1011.58
2017-06-05T11:44:54.287Z,1011.58
2017-06-05T11:46:04.242Z,1011.56
2017-06-05T11:47:13.564Z,1011.63
2017-06-05T11:48:23.832Z,1011.62
2017-06-05T11:49:33.778Z,1011.55
2017-06-05T11:50:43.720Z,1011.47
2017-06-05T11:51:53.675Z,1011.46
2017-06-05T11:53:03.944Z,1011.47
2017-06-05T11:54:13.895Z,1011.42
2017-06-05T11:55:23.844Z,1011.47
2017-06-05T11:56:33.524Z,1011.43
2017-06-05T11:57:43.793Z,1011.36
2017-06-05T11:58:53.115Z,1011.41
2017-06-05T12:00:02.752Z,1011.45
2017-06-05T12:01:13.026Z,1011.42
2017-06-05T12:02:22.681Z,1011.38
2017-06-05T12:03:32.968Z,1011.36
2017-06-05T12:04:42.609Z,1011.27
2017-06-05T12:05:52.880Z,1011.32
2017-06-05T12:07:02.831Z,1011.26
2017-06-05T12:08:12.778Z,1011.26
2017-06-05T12:09:23.047Z,1011.28
2017-06-05T12:10:33.316Z,1011.23
2017-06-05T12:11:43.578Z,1011.16
2017-06-05T12:12:53.845Z,1011.17
2017-06-05T12:14:03.800Z,1011.21
2017-06-05T12:15:13.432Z,1011.11
2017-06-05T12:16:23.383Z,1011.1
2017-06-05T12:17:33.337Z,1011.15
2017-06-05T12:18:43.286Z,1011.13
2017-06-05T12:19:52.923Z,1011.16
2017-06-05T12:21:03.187Z,1011.13
2017-06-05T12:22:12.835Z,1011.13
2017-06-05T12:23:23.107Z,1011.14
2017-06-05T12:24:33.367Z,1011.13
2017-06-05T12:25:43.629Z,1011.14
2017-06-05T12:26:53.579Z,1011.13
2017-06-05T12:28:03.534Z,1011.09
2017-06-05T12:29:13.493Z,1011.13
2017-06-05T12:30:23.752Z,1011.09
2017-06-05T12:31:33.392Z,1011.08
2017-06-05T12:32:43.341Z,1011.1
2017-06-05T12:33:52.974Z,1011.12
2017-06-05T12:35:02.922Z,1011.13
2017-06-05T12:36:12.869Z,1011.1
2017-06-05T12:37:23.137Z,1011.09
2017-06-05T12:38:33.400Z,1011.02
2017-06-05T12:39:43.666Z,1011.02
2017-06-05T12:40:53.934Z,1011.01
2017-06-05T12:42:04.212Z,1010.96
2017-06-05T12:43:14.168Z,1010.96
2017-06-05T12:44:24.120Z,1010.96
2017-06-05T12:45:33.757Z,1010.98
2017-06-05T12:46:44.020Z,1010.96
2017-06-05T12:47:53.972Z,1011
2017-06-05T12:49:03.920Z,1010.95
2017-06-05T12:50:14.187Z,1010.95
2017-06-05T12:51:24.138Z,1010.91
2017-06-05T12:52:34.405Z,1010.89
2017-06-05T12:53:44.670Z,1010.87
2017-06-05T12:54:54.944Z,1010.88
2017-06-05T12:56:05.212Z,1010.86
2017-06-05T12:57:15.163Z,1010.9
2017-06-05T12:58:25.419Z,1010.89
2017-06-05T12:59:35.707Z,1010.91
2017-06-05T13:00:45.969Z,1010.9
2017-06-05T13:01:55.920Z,1010.84
2017-06-05T13:03:06.191Z,1010.86
2017-06-05T13:04:15.827Z,1010.83
2017-06-05T13:05:25.809Z,1010.82
2017-06-05T13:06:35.754Z,1010.85
2017-06-05T13:07:46.025Z,1010.81
2017-06-05T13:08:55.974Z,1010.84
2017-06-05T13:10:05.924Z,1010.83
2017-06-05T13:11:16.192Z,1010.85
2017-06-05T13:12:25.510Z,1010.8
2017-06-05T13:13:35.774Z,1010.78
2017-06-05T13:14:46.043Z,1010.78
2017-06-05T13:15:55.698Z,1010.77
2017-06-05T13:17:05.967Z,1010.75
2017-06-05T13:18:15.919Z,1010.75
2017-06-05T13:19:26.182Z,1010.77
2017-06-05T13:20:36.451Z,1010.73
2017-06-05T13:21:46.398Z,1010.71
2017-06-05T13:22:56.659Z,1010.72
2017-06-05T13:24:06.613Z,1010.68
2017-06-05T13:25:16.564Z,1010.67
2017-06-05T13:26:26.828Z,1010.69
2017-06-05T13:27:35.832Z,1010.66
2017-06-05T13:28:45.779Z,1010.64
2017-06-05T13:29:55.765Z,1010.61
2017-06-05T13:31:05.412Z,1010.61
2017-06-05T13:32:15.683Z,1010.56
2017-06-05T13:33:25.317Z,1010.57
2017-06-05T13:34:35.312Z,1010.54
2017-06-05T13:35:44.941Z,1010.53
2017-06-05T13:36:55.210Z,1010.54
2017-06-05T13:38:05.155Z,1010.56
2017-06-05T13:39:15.450Z,1010.5
2017-06-05T13:40:25.399Z,1010.49
2017-06-05T13:41:35.043Z,1010.48
2017-06-05T13:42:44.680Z,1010.5
2017-06-05T13:43:54.945Z,1010.46
2017-06-05T13:45:04.931Z,1010.4
2017-06-05T13:46:15.191Z,1010.41
2017-06-05T13:47:25.149Z,1010.38
2017-06-05T13:48:35.422Z,1010.4
2017-06-05T13:49:45.719Z,1010.4
2017-06-05T13:50:55.673Z,1010.4
2017-06-05T13:52:05.939Z,1010.39
2017-06-05T13:53:15.892Z,1010.38
2017-06-05T13:54:25.844Z,1010.36
2017-06-05T13:55:36.105Z,1010.34
2017-06-05T13:56:46.055Z,1010.35
2017-06-05T13:57:56.001Z,1010.33
2017-06-05T13:59:05.636Z,1010.34
2017-06-05T14:00:15.609Z,1010.3
2017-06-05T14:01:25.881Z,1010.3
2017-06-05T14:02:35.834Z,1010.32
2017-06-05T14:03:45.479Z,1010.24
2017-06-05T14:04:55.753Z,1010.22
2017-06-05T14:06:05.708Z,1010.2
2017-06-05T14:07:15.655Z,1010.17
2017-06-05T14:08:25.290Z,1010.17
2017-06-05T14:09:35.245Z,1010.16
2017-06-05T14:10:44.935Z,1010.11